sensor_id;sensor_type;location;lat;lon;timestamp;P1;durP1;ratioP1;P2;durP2;ratioP2
62362;SDS011;48396;48.426;1.500;2022-11-22T00:00:02;15.95;;;2.70;;
62362;SDS011;48396;48.426;1.500;2022-11-22T00:02:29;13.65;;;3.08;;
62362;SDS011;48396;48.426;1.500;2022-11-22T00:04:54;10.68;;;3.53;;
62362;SDS011;48396;48.426;1.500;2022-11-22T00:07:20;14.57;;;3.60;;
62362;SDS011;48396;48.426;1.500;2022-11-22T00:09:46;12.13;;;3.10;;
62362;SDS011;48396;48.426;1.500;2022-11-22T00:12:11;17.42;;;3.58;;
62362;SDS011;48396;48.426;1.500;2022-11-22T00:14:37;14.50;;;3.60;;
62362;SDS011;48396;48.426;1.500;2022-11-22T00:17:03;10.43;;;3.28;;
62362;SDS011;48396;48.426;1.500;2022-11-22T00:19:28;14.32;;;3.10;;
62362;SDS011;48396;48.426;1.500;2022-11-22T00:21:54;13.23;;;3.33;;
62362;SDS011;48396;48.426;1.500;2022-11-22T00:24:20;11.23;;;2.92;;
62362;SDS011;48396;48.426;1.500;2022-11-22T00:26:46;13.57;;;3.10;;
62362;SDS011;48396;48.426;1.500;2022-11-22T00:29:11;16.20;;;3.25;;
62362;SDS011;48396;48.426;1.500;2022-11-22T00:31:38;9.82;;;3.20;;
62362;SDS011;48396;48.426;1.500;2022-11-22T00:34:04;9.50;;;2.75;;
62362;SDS011;48396;48.426;1.500;2022-11-22T00:36:30;13.43;;;3.58;;
62362;SDS011;48396;48.426;1.500;2022-11-22T00:38:56;7.82;;;3.08;;
62362;SDS011;48396;48.426;1.500;2022-11-22T00:41:21;14.43;;;3.00;;
62362;SDS011;48396;48.426;1.500;2022-11-22T00:43:47;13.00;;;2.83;;
62362;SDS011;48396;48.426;1.500;2022-11-22T00:46:13;11.48;;;2.63;;
62362;SDS011;48396;48.426;1.500;2022-11-22T00:48:38;15.02;;;2.95;;
62362;SDS011;48396;48.426;1.500;2022-11-22T00:51:04;10.10;;;2.58;;
62362;SDS011;48396;48.426;1.500;2022-11-22T00:53:30;13.63;;;3.33;;
62362;SDS011;48396;48.426;1.500;2022-11-22T00:55:56;10.93;;;2.67;;
62362;SDS011;48396;48.426;1.500;2022-11-22T00:58:21;9.95;;;2.60;;
62362;SDS011;48396;48.426;1.500;2022-11-22T01:00:48;12.70;;;2.53;;
62362;SDS011;48396;48.426;1.500;2022-11-22T01:03:14;10.77;;;2.45;;
62362;SDS011;48396;48.426;1.500;2022-11-22T01:05:40;13.65;;;2.90;;
62362;SDS011;48396;48.426;1.500;2022-11-22T01:08:06;14.35;;;2.80;;
62362;SDS011;48396;48.426;1.500;2022-11-22T01:10:33;10.02;;;2.53;;
62362;SDS011;48396;48.426;1.500;2022-11-22T01:13:00;12.77;;;2.90;;
62362;SDS011;48396;48.426;1.500;2022-11-22T01:15:26;12.70;;;2.63;;
62362;SDS011;48396;48.426;1.500;2022-11-22T01:17:52;9.32;;;2.33;;
62362;SDS011;48396;48.426;1.500;2022-11-22T01:20:17;11.73;;;3.33;;
62362;SDS011;48396;48.426;1.500;2022-11-22T01:22:43;9.27;;;3.05;;
62362;SDS011;48396;48.426;1.500;2022-11-22T01:25:09;12.18;;;2.60;;
62362;SDS011;48396;48.426;1.500;2022-11-22T01:27:35;6.72;;;1.85;;
62362;SDS011;48396;48.426;1.500;2022-11-22T01:30:01;8.27;;;2.25;;
62362;SDS011;48396;48.426;1.500;2022-11-22T01:32:27;11.68;;;2.58;;
62362;SDS011;48396;48.426;1.500;2022-11-22T01:34:52;9.68;;;2.47;;
62362;SDS011;48396;48.426;1.500;2022-11-22T01:37:18;11.18;;;2.55;;
62362;SDS011;48396;48.426;1.500;2022-11-22T01:39:44;11.25;;;2.45;;
62362;SDS011;48396;48.426;1.500;2022-11-22T01:42:10;11.15;;;2.75;;
62362;SDS011;48396;48.426;1.500;2022-11-22T01:44:40;8.38;;;2.38;;
62362;SDS011;48396;48.426;1.500;2022-11-22T01:47:11;9.15;;;2.40;;
62362;SDS011;48396;48.426;1.500;2022-11-22T01:49:45;10.55;;;2.40;;
62362;SDS011;48396;48.426;1.500;2022-11-22T01:52:18;10.70;;;2.70;;
62362;SDS011;48396;48.426;1.500;2022-11-22T01:54:50;10.13;;;2.20;;
62362;SDS011;48396;48.426;1.500;2022-11-22T01:57:22;15.07;;;2.78;;
62362;SDS011;48396;48.426;1.500;2022-11-22T01:59:53;12.32;;;2.50;;
62362;SDS011;48396;48.426;1.500;2022-11-22T02:02:23;11.05;;;2.17;;
62362;SDS011;48396;48.426;1.500;2022-11-22T02:04:49;10.38;;;2.10;;
62362;SDS011;48396;48.426;1.500;2022-11-22T02:07:19;12.85;;;2.92;;
62362;SDS011;48396;48.426;1.500;2022-11-22T02:09:47;11.00;;;2.20;;
62362;SDS011;48396;48.426;1.500;2022-11-22T02:12:16;9.48;;;1.92;;
62362;SDS011;48396;48.426;1.500;2022-11-22T02:14:45;9.50;;;2.15;;
62362;SDS011;48396;48.426;1.500;2022-11-22T02:17:11;9.73;;;2.47;;
62362;SDS011;48396;48.426;1.500;2022-11-22T02:19:38;5.95;;;1.80;;
62362;SDS011;48396;48.426;1.500;2022-11-22T02:22:11;16.25;;;2.83;;
62362;SDS011;48396;48.426;1.500;2022-11-22T02:24:45;7.57;;;2.08;;
62362;SDS011;48396;48.426;1.500;2022-11-22T02:27:32;8.77;;;1.95;;
62362;SDS011;48396;48.426;1.500;2022-11-22T02:29:58;11.45;;;2.30;;
62362;SDS011;48396;48.426;1.500;2022-11-22T02:32:24;8.18;;;2.05;;
62362;SDS011;48396;48.426;1.500;2022-11-22T02:34:50;8.88;;;2.33;;
62362;SDS011;48396;48.426;1.500;2022-11-22T02:37:26;11.93;;;2.40;;
62362;SDS011;48396;48.426;1.500;2022-11-22T02:39:56;10.48;;;2.38;;
62362;SDS011;48396;48.426;1.500;2022-11-22T02:42:26;10.60;;;2.25;;
62362;SDS011;48396;48.426;1.500;2022-11-22T02:44:54;8.07;;;2.10;;
62362;SDS011;48396;48.426;1.500;2022-11-22T02:47:20;7.60;;;2.03;;
62362;SDS011;48396;48.426;1.500;2022-11-22T02:49:45;10.68;;;1.98;;
62362;SDS011;48396;48.426;1.500;2022-11-22T02:52:15;11.45;;;2.30;;
62362;SDS011;48396;48.426;1.500;2022-11-22T02:54:41;10.55;;;2.22;;
62362;SDS011;48396;48.426;1.500;2022-11-22T02:57:07;6.50;;;2.05;;
62362;SDS011;48396;48.426;1.500;2022-11-22T02:59:33;9.27;;;2.50;;
62362;SDS011;48396;48.426;1.500;2022-11-22T03:01:58;12.98;;;2.55;;
62362;SDS011;48396;48.426;1.500;2022-11-22T03:04:24;10.43;;;2.13;;
62362;SDS011;48396;48.426;1.500;2022-11-22T03:06:51;7.47;;;1.90;;
62362;SDS011;48396;48.426;1.500;2022-11-22T03:09:18;11.18;;;2.10;;
62362;SDS011;48396;48.426;1.500;2022-11-22T03:11:44;12.05;;;2.20;;
62362;SDS011;48396;48.426;1.500;2022-11-22T03:14:11;7.13;;;1.77;;
62362;SDS011;48396;48.426;1.500;2022-11-22T03:16:44;7.45;;;1.83;;
62362;SDS011;48396;48.426;1.500;2022-11-22T03:19:10;9.02;;;1.88;;
62362;SDS011;48396;48.426;1.500;2022-11-22T03:21:37;10.48;;;2.38;;
62362;SDS011;48396;48.426;1.500;2022-11-22T03:24:03;11.60;;;2.58;;
62362;SDS011;48396;48.426;1.500;2022-11-22T03:26:30;10.43;;;2.08;;
62362;SDS011;48396;48.426;1.500;2022-11-22T03:28:55;10.85;;;2.38;;
62362;SDS011;48396;48.426;1.500;2022-11-22T03:31:21;5.75;;;2.00;;
62362;SDS011;48396;48.426;1.500;2022-11-22T03:33:47;10.30;;;1.95;;
62362;SDS011;48396;48.426;1.500;2022-11-22T03:36:13;10.40;;;2.42;;
62362;SDS011;48396;48.426;1.500;2022-11-22T03:38:38;11.57;;;1.95;;
62362;SDS011;48396;48.426;1.500;2022-11-22T03:41:04;9.38;;;2.38;;
62362;SDS011;48396;48.426;1.500;2022-11-22T03:43:30;8.85;;;2.35;;
62362;SDS011;48396;48.426;1.500;2022-11-22T03:45:56;8.77;;;2.22;;
62362;SDS011;48396;48.426;1.500;2022-11-22T03:48:21;7.20;;;2.40;;
62362;SDS011;48396;48.426;1.500;2022-11-22T03:50:47;12.23;;;2.55;;
62362;SDS011;48396;48.426;1.500;2022-11-22T03:53:13;12.00;;;2.60;;
62362;SDS011;48396;48.426;1.500;2022-11-22T03:55:39;13.00;;;2.40;;
62362;SDS011;48396;48.426;1.500;2022-11-22T03:58:04;8.85;;;2.20;;
62362;SDS011;48396;48.426;1.500;2022-11-22T04:00:31;8.75;;;1.95;;
62362;SDS011;48396;48.426;1.500;2022-11-22T04:02:56;8.10;;;2.10;;
62362;SDS011;48396;48.426;1.500;2022-11-22T04:05:22;11.15;;;2.15;;
62362;SDS011;48396;48.426;1.500;2022-11-22T04:07:48;7.65;;;1.90;;
62362;SDS011;48396;48.426;1.500;2022-11-22T04:10:19;9.60;;;2.47;;
62362;SDS011;48396;48.426;1.500;2022-11-22T04:12:45;11.20;;;2.45;;
62362;SDS011;48396;48.426;1.500;2022-11-22T04:15:11;12.75;;;2.05;;
62362;SDS011;48396;48.426;1.500;2022-11-22T04:17:37;10.93;;;2.13;;
62362;SDS011;48396;48.426;1.500;2022-11-22T04:20:05;10.55;;;1.70;;
62362;SDS011;48396;48.426;1.500;2022-11-22T04:22:58;10.30;;;1.70;;
62362;SDS011;48396;48.426;1.500;2022-11-22T04:25:26;8.25;;;1.95;;
62362;SDS011;48396;48.426;1.500;2022-11-22T04:27:53;9.45;;;2.50;;
62362;SDS011;48396;48.426;1.500;2022-11-22T04:30:19;6.80;;;1.83;;
62362;SDS011;48396;48.426;1.500;2022-11-22T04:32:46;12.93;;;2.95;;
62362;SDS011;48396;48.426;1.500;2022-11-22T04:35:15;10.02;;;2.30;;
62362;SDS011;48396;48.426;1.500;2022-11-22T04:37:42;7.78;;;1.75;;
62362;SDS011;48396;48.426;1.500;2022-11-22T04:40:15;8.52;;;2.10;;
62362;SDS011;48396;48.426;1.500;2022-11-22T04:42:41;9.52;;;2.40;;
62362;SDS011;48396;48.426;1.500;2022-11-22T04:45:25;8.73;;;2.00;;
62362;SDS011;48396;48.426;1.500;2022-11-22T04:47:50;11.00;;;1.85;;
62362;SDS011;48396;48.426;1.500;2022-11-22T04:50:28;10.70;;;2.22;;
62362;SDS011;48396;48.426;1.500;2022-11-22T04:53:13;12.75;;;2.33;;
62362;SDS011;48396;48.426;1.500;2022-11-22T04:55:40;9.98;;;1.95;;
62362;SDS011;48396;48.426;1.500;2022-11-22T04:58:07;9.20;;;2.00;;
62362;SDS011;48396;48.426;1.500;2022-11-22T05:00:33;11.30;;;2.13;;
62362;SDS011;48396;48.426;1.500;2022-11-22T05:02:59;9.43;;;1.95;;
62362;SDS011;48396;48.426;1.500;2022-11-22T05:05:25;15.50;;;2.55;;
62362;SDS011;48396;48.426;1.500;2022-11-22T05:07:52;11.18;;;2.47;;
62362;SDS011;48396;48.426;1.500;2022-11-22T05:10:18;13.88;;;2.40;;
62362;SDS011;48396;48.426;1.500;2022-11-22T05:12:43;7.13;;;1.70;;
62362;SDS011;48396;48.426;1.500;2022-11-22T05:15:10;6.18;;;1.70;;
62362;SDS011;48396;48.426;1.500;2022-11-22T05:17:36;11.77;;;2.47;;
62362;SDS011;48396;48.426;1.500;2022-11-22T05:20:03;15.68;;;2.60;;
62362;SDS011;48396;48.426;1.500;2022-11-22T05:22:30;8.35;;;2.05;;
62362;SDS011;48396;48.426;1.500;2022-11-22T05:25:14;9.50;;;2.17;;
62362;SDS011;48396;48.426;1.500;2022-11-22T05:27:39;9.77;;;2.38;;
62362;SDS011;48396;48.426;1.500;2022-11-22T05:30:05;11.20;;;2.30;;
62362;SDS011;48396;48.426;1.500;2022-11-22T05:32:32;9.55;;;2.20;;
62362;SDS011;48396;48.426;1.500;2022-11-22T05:34:58;10.70;;;2.22;;
62362;SDS011;48396;48.426;1.500;2022-11-22T05:37:24;13.90;;;2.45;;
62362;SDS011;48396;48.426;1.500;2022-11-22T05:39:50;10.68;;;1.80;;
62362;SDS011;48396;48.426;1.500;2022-11-22T05:42:17;8.50;;;2.20;;
62362;SDS011;48396;48.426;1.500;2022-11-22T05:44:43;8.88;;;2.25;;
62362;SDS011;48396;48.426;1.500;2022-11-22T05:47:09;10.07;;;2.67;;
62362;SDS011;48396;48.426;1.500;2022-11-22T05:49:35;8.77;;;2.35;;
62362;SDS011;48396;48.426;1.500;2022-11-22T05:52:01;11.85;;;2.25;;
62362;SDS011;48396;48.426;1.500;2022-11-22T05:54:27;11.50;;;2.65;;
62362;SDS011;48396;48.426;1.500;2022-11-22T05:56:54;13.50;;;2.38;;
62362;SDS011;48396;48.426;1.500;2022-11-22T05:59:19;17.50;;;2.80;;
62362;SDS011;48396;48.426;1.500;2022-11-22T06:01:45;16.40;;;2.80;;
62362;SDS011;48396;48.426;1.500;2022-11-22T06:04:11;13.32;;;2.20;;
62362;SDS011;48396;48.426;1.500;2022-11-22T06:06:37;16.63;;;2.70;;
62362;SDS011;48396;48.426;1.500;2022-11-22T06:09:03;11.55;;;2.50;;
62362;SDS011;48396;48.426;1.500;2022-11-22T06:11:29;18.65;;;3.25;;
62362;SDS011;48396;48.426;1.500;2022-11-22T06:13:59;14.88;;;3.03;;
62362;SDS011;48396;48.426;1.500;2022-11-22T06:16:27;18.05;;;2.63;;
62362;SDS011;48396;48.426;1.500;2022-11-22T06:18:53;13.02;;;2.22;;
62362;SDS011;48396;48.426;1.500;2022-11-22T06:21:20;12.55;;;2.97;;
62362;SDS011;48396;48.426;1.500;2022-11-22T06:23:47;16.95;;;2.90;;
62362;SDS011;48396;48.426;1.500;2022-11-22T06:26:14;15.80;;;2.67;;
62362;SDS011;48396;48.426;1.500;2022-11-22T06:28:42;11.70;;;2.90;;
62362;SDS011;48396;48.426;1.500;2022-11-22T06:31:24;15.52;;;2.50;;
62362;SDS011;48396;48.426;1.500;2022-11-22T06:33:52;15.60;;;2.83;;
62362;SDS011;48396;48.426;1.500;2022-11-22T06:36:23;14.38;;;2.55;;
62362;SDS011;48396;48.426;1.500;2022-11-22T06:38:50;8.77;;;2.20;;
62362;SDS011;48396;48.426;1.500;2022-11-22T06:41:18;11.05;;;2.30;;
62362;SDS011;48396;48.426;1.500;2022-11-22T06:43:46;17.02;;;2.70;;
62362;SDS011;48396;48.426;1.500;2022-11-22T06:46:13;13.88;;;2.58;;
62362;SDS011;48396;48.426;1.500;2022-11-22T06:48:39;14.90;;;2.97;;
62362;SDS011;48396;48.426;1.500;2022-11-22T06:51:08;12.63;;;2.50;;
62362;SDS011;48396;48.426;1.500;2022-11-22T06:53:36;14.70;;;2.75;;
62362;SDS011;48396;48.426;1.500;2022-11-22T06:56:05;13.43;;;2.60;;
62362;SDS011;48396;48.426;1.500;2022-11-22T06:58:33;7.88;;;2.03;;
62362;SDS011;48396;48.426;1.500;2022-11-22T07:01:00;13.07;;;2.58;;
62362;SDS011;48396;48.426;1.500;2022-11-22T07:03:27;15.70;;;2.92;;
62362;SDS011;48396;48.426;1.500;2022-11-22T07:05:53;16.73;;;2.95;;
62362;SDS011;48396;48.426;1.500;2022-11-22T07:08:19;16.42;;;2.95;;
62362;SDS011;48396;48.426;1.500;2022-11-22T07:10:45;21.25;;;3.80;;
62362;SDS011;48396;48.426;1.500;2022-11-22T07:13:11;11.43;;;2.50;;
62362;SDS011;48396;48.426;1.500;2022-11-22T07:15:37;15.73;;;2.72;;
62362;SDS011;48396;48.426;1.500;2022-11-22T07:18:03;12.18;;;2.88;;
62362;SDS011;48396;48.426;1.500;2022-11-22T07:20:28;21.55;;;4.13;;
62362;SDS011;48396;48.426;1.500;2022-11-22T07:22:54;13.68;;;3.03;;
62362;SDS011;48396;48.426;1.500;2022-11-22T07:25:20;14.98;;;2.90;;
62362;SDS011;48396;48.426;1.500;2022-11-22T07:27:46;13.13;;;2.60;;
62362;SDS011;48396;48.426;1.500;2022-11-22T07:30:12;15.80;;;2.60;;
62362;SDS011;48396;48.426;1.500;2022-11-22T07:32:38;15.80;;;2.92;;
62362;SDS011;48396;48.426;1.500;2022-11-22T07:35:04;18.27;;;3.20;;
62362;SDS011;48396;48.426;1.500;2022-11-22T07:37:30;14.52;;;2.90;;
62362;SDS011;48396;48.426;1.500;2022-11-22T07:39:56;15.40;;;3.25;;
62362;SDS011;48396;48.426;1.500;2022-11-22T07:42:22;13.68;;;2.90;;
62362;SDS011;48396;48.426;1.500;2022-11-22T07:44:49;17.20;;;3.13;;
62362;SDS011;48396;48.426;1.500;2022-11-22T07:47:15;14.48;;;2.97;;
62362;SDS011;48396;48.426;1.500;2022-11-22T07:49:41;12.38;;;2.60;;
62362;SDS011;48396;48.426;1.500;2022-11-22T07:52:07;14.65;;;2.72;;
62362;SDS011;48396;48.426;1.500;2022-11-22T07:54:32;19.85;;;3.17;;
62362;SDS011;48396;48.426;1.500;2022-11-22T07:56:58;18.20;;;3.05;;
62362;SDS011;48396;48.426;1.500;2022-11-22T07:59:24;14.40;;;3.00;;
62362;SDS011;48396;48.426;1.500;2022-11-22T08:01:50;19.13;;;3.33;;
62362;SDS011;48396;48.426;1.500;2022-11-22T08:04:16;16.52;;;3.05;;
62362;SDS011;48396;48.426;1.500;2022-11-22T08:06:41;17.38;;;3.22;;
62362;SDS011;48396;48.426;1.500;2022-11-22T08:09:08;14.32;;;3.13;;
62362;SDS011;48396;48.426;1.500;2022-11-22T08:11:34;17.90;;;3.10;;
62362;SDS011;48396;48.426;1.500;2022-11-22T08:14:01;20.08;;;3.67;;
62362;SDS011;48396;48.426;1.500;2022-11-22T08:16:27;19.33;;;3.78;;
62362;SDS011;48396;48.426;1.500;2022-11-22T08:18:52;17.83;;;3.10;;
62362;SDS011;48396;48.426;1.500;2022-11-22T08:21:18;13.63;;;3.40;;
62362;SDS011;48396;48.426;1.500;2022-11-22T08:23:45;16.85;;;2.75;;
62362;SDS011;48396;48.426;1.500;2022-11-22T08:26:12;16.58;;;3.42;;
62362;SDS011;48396;48.426;1.500;2022-11-22T08:28:40;15.32;;;2.95;;
62362;SDS011;48396;48.426;1.500;2022-11-22T08:31:07;18.52;;;4.35;;
62362;SDS011;48396;48.426;1.500;2022-11-22T08:33:39;16.25;;;3.40;;
62362;SDS011;48396;48.426;1.500;2022-11-22T08:36:05;21.05;;;3.72;;
62362;SDS011;48396;48.426;1.500;2022-11-22T08:38:31;16.05;;;3.90;;
62362;SDS011;48396;48.426;1.500;2022-11-22T08:41:00;14.52;;;3.08;;
62362;SDS011;48396;48.426;1.500;2022-11-22T08:43:26;17.55;;;3.22;;
62362;SDS011;48396;48.426;1.500;2022-11-22T08:45:55;16.17;;;3.35;;
62362;SDS011;48396;48.426;1.500;2022-11-22T08:48:22;21.48;;;3.65;;
62362;SDS011;48396;48.426;1.500;2022-11-22T08:50:54;17.10;;;3.28;;
62362;SDS011;48396;48.426;1.500;2022-11-22T08:53:22;18.25;;;3.15;;
62362;SDS011;48396;48.426;1.500;2022-11-22T08:55:48;16.90;;;3.50;;
62362;SDS011;48396;48.426;1.500;2022-11-22T08:58:15;16.45;;;3.53;;
62362;SDS011;48396;48.426;1.500;2022-11-22T09:00:41;15.77;;;3.80;;
62362;SDS011;48396;48.426;1.500;2022-11-22T09:03:08;15.25;;;3.33;;
62362;SDS011;48396;48.426;1.500;2022-11-22T09:05:35;14.32;;;3.10;;
62362;SDS011;48396;48.426;1.500;2022-11-22T09:08:00;17.65;;;3.10;;
62362;SDS011;48396;48.426;1.500;2022-11-22T09:10:26;20.60;;;3.50;;
62362;SDS011;48396;48.426;1.500;2022-11-22T09:12:52;18.65;;;3.92;;
62362;SDS011;48396;48.426;1.500;2022-11-22T09:15:19;19.00;;;3.42;;
62362;SDS011;48396;48.426;1.500;2022-11-22T09:17:45;14.15;;;2.85;;
62362;SDS011;48396;48.426;1.500;2022-11-22T09:20:10;12.65;;;2.42;;
62362;SDS011;48396;48.426;1.500;2022-11-22T09:22:36;17.23;;;3.30;;
62362;SDS011;48396;48.426;1.500;2022-11-22T09:25:03;12.00;;;3.30;;
62362;SDS011;48396;48.426;1.500;2022-11-22T09:27:30;14.45;;;3.10;;
62362;SDS011;48396;48.426;1.500;2022-11-22T09:29:57;19.38;;;3.10;;
62362;SDS011;48396;48.426;1.500;2022-11-22T09:32:23;17.33;;;3.10;;
62362;SDS011;48396;48.426;1.500;2022-11-22T09:34:49;13.95;;;2.92;;
62362;SDS011;48396;48.426;1.500;2022-11-22T09:37:15;18.25;;;3.10;;
62362;SDS011;48396;48.426;1.500;2022-11-22T09:39:44;14.35;;;2.60;;
62362;SDS011;48396;48.426;1.500;2022-11-22T09:45:32;19.80;;;3.72;;
62362;SDS011;48396;48.426;1.500;2022-11-22T09:50:59;16.38;;;2.97;;
62362;SDS011;48396;48.426;1.500;2022-11-22T09:56:14;15.67;;;2.97;;
62362;SDS011;48396;48.426;1.500;2022-11-22T09:58:49;13.13;;;2.67;;
62362;SDS011;48396;48.426;1.500;2022-11-22T10:01:26;15.23;;;2.83;;
62362;SDS011;48396;48.426;1.500;2022-11-22T10:04:27;16.83;;;4.13;;
62362;SDS011;48396;48.426;1.500;2022-11-22T10:07:00;17.73;;;3.70;;
62362;SDS011;48396;48.426;1.500;2022-11-22T10:09:46;14.95;;;3.05;;
62362;SDS011;48396;48.426;1.500;2022-11-22T10:12:24;17.75;;;2.70;;
62362;SDS011;48396;48.426;1.500;2022-11-22T10:20:22;11.23;;;2.78;;
62362;SDS011;48396;48.426;1.500;2022-11-22T10:22:51;18.10;;;3.42;;
62362;SDS011;48396;48.426;1.500;2022-11-22T10:25:20;19.33;;;2.92;;
62362;SDS011;48396;48.426;1.500;2022-11-22T10:28:17;14.10;;;3.25;;
62362;SDS011;48396;48.426;1.500;2022-11-22T10:44:23;16.27;;;4.03;;
62362;SDS011;48396;48.426;1.500;2022-11-22T10:46:56;20.23;;;3.33;;
62362;SDS011;48396;48.426;1.500;2022-11-22T10:54:55;18.45;;;3.60;;
62362;SDS011;48396;48.426;1.500;2022-11-22T11:05:29;16.10;;;3.00;;
62362;SDS011;48396;48.426;1.500;2022-11-22T11:11:01;14.73;;;3.15;;
62362;SDS011;48396;48.426;1.500;2022-11-22T11:13:28;16.10;;;2.78;;
62362;SDS011;48396;48.426;1.500;2022-11-22T11:15:58;15.15;;;3.00;;
62362;SDS011;48396;48.426;1.500;2022-11-22T11:18:29;19.63;;;3.67;;
62362;SDS011;48396;48.426;1.500;2022-11-22T11:21:15;18.52;;;3.13;;
62362;SDS011;48396;48.426;1.500;2022-11-22T11:23:42;16.75;;;3.60;;
62362;SDS011;48396;48.426;1.500;2022-11-22T11:28:39;14.02;;;2.85;;
62362;SDS011;48396;48.426;1.500;2022-11-22T11:31:07;11.98;;;3.22;;
62362;SDS011;48396;48.426;1.500;2022-11-22T11:33:35;12.57;;;2.78;;
62362;SDS011;48396;48.426;1.500;2022-11-22T11:36:04;12.95;;;2.85;;
62362;SDS011;48396;48.426;1.500;2022-11-22T11:38:34;11.40;;;2.85;;
62362;SDS011;48396;48.426;1.500;2022-11-22T11:43:54;13.13;;;3.03;;
62362;SDS011;48396;48.426;1.500;2022-11-22T11:46:23;15.20;;;2.90;;
62362;SDS011;48396;48.426;1.500;2022-11-22T11:48:53;16.48;;;2.78;;
62362;SDS011;48396;48.426;1.500;2022-11-22T11:56:57;19.25;;;3.22;;
62362;SDS011;48396;48.426;1.500;2022-11-22T12:04:55;18.80;;;2.83;;
62362;SDS011;48396;48.426;1.500;2022-11-22T12:10:00;11.80;;;2.20;;
62362;SDS011;48396;48.426;1.500;2022-11-22T12:17:56;16.50;;;2.60;;
62362;SDS011;48396;48.426;1.500;2022-11-22T12:20:40;7.68;;;2.08;;
62362;SDS011;48396;48.426;1.500;2022-11-22T12:23:20;17.20;;;2.70;;
62362;SDS011;48396;48.426;1.500;2022-11-22T12:25:49;14.48;;;2.78;;
62362;SDS011;48396;48.426;1.500;2022-11-22T12:28:19;9.73;;;2.67;;
62362;SDS011;48396;48.426;1.500;2022-11-22T12:30:56;16.60;;;3.20;;
62362;SDS011;48396;48.426;1.500;2022-11-22T12:33:49;12.90;;;2.70;;
62362;SDS011;48396;48.426;1.500;2022-11-22T12:36:21;12.80;;;2.40;;
62362;SDS011;48396;48.426;1.500;2022-11-22T12:38:53;17.25;;;2.85;;
62362;SDS011;48396;48.426;1.500;2022-11-22T12:41:22;10.20;;;2.40;;
62362;SDS011;48396;48.426;1.500;2022-11-22T12:43:59;12.32;;;2.28;;
62362;SDS011;48396;48.426;1.500;2022-11-22T12:46:28;11.15;;;2.60;;
62362;SDS011;48396;48.426;1.500;2022-11-22T12:49:13;10.80;;;2.63;;
62362;SDS011;48396;48.426;1.500;2022-11-22T12:51:52;14.55;;;2.65;;
62362;SDS011;48396;48.426;1.500;2022-11-22T12:57:20;9.25;;;2.10;;
62362;SDS011;48396;48.426;1.500;2022-11-22T13:03:22;13.63;;;2.83;;
62362;SDS011;48396;48.426;1.500;2022-11-22T13:09:10;11.75;;;1.80;;
62362;SDS011;48396;48.426;1.500;2022-11-22T13:11:36;13.18;;;2.70;;
62362;SDS011;48396;48.426;1.500;2022-11-22T13:16:46;14.55;;;2.60;;
62362;SDS011;48396;48.426;1.500;2022-11-22T13:19:14;14.63;;;3.17;;
62362;SDS011;48396;48.426;1.500;2022-11-22T13:29:32;14.63;;;3.40;;
62362;SDS011;48396;48.426;1.500;2022-11-22T13:34:41;17.67;;;3.00;;
62362;SDS011;48396;48.426;1.500;2022-11-22T13:37:30;13.18;;;2.25;;
62362;SDS011;48396;48.426;1.500;2022-11-22T13:40:07;13.45;;;2.55;;
62362;SDS011;48396;48.426;1.500;2022-11-22T13:42:36;13.00;;;2.40;;
62362;SDS011;48396;48.426;1.500;2022-11-22T13:45:06;14.35;;;2.65;;
62362;SDS011;48396;48.426;1.500;2022-11-22T13:47:48;8.95;;;2.47;;
62362;SDS011;48396;48.426;1.500;2022-11-22T13:53:02;12.02;;;2.53;;
62362;SDS011;48396;48.426;1.500;2022-11-22T13:55:44;15.23;;;3.25;;
62362;SDS011;48396;48.426;1.500;2022-11-22T14:00:49;13.80;;;2.45;;
62362;SDS011;48396;48.426;1.500;2022-11-22T14:03:36;11.13;;;2.65;;
62362;SDS011;48396;48.426;1.500;2022-11-22T14:06:44;14.55;;;3.20;;
62362;SDS011;48396;48.426;1.500;2022-11-22T14:12:03;14.63;;;2.65;;
62362;SDS011;48396;48.426;1.500;2022-11-22T14:14:46;12.07;;;2.13;;
62362;SDS011;48396;48.426;1.500;2022-11-22T14:17:35;11.50;;;2.45;;
62362;SDS011;48396;48.426;1.500;2022-11-22T14:31:13;14.93;;;2.60;;
62362;SDS011;48396;48.426;1.500;2022-11-22T14:58:43;15.35;;;3.40;;
62362;SDS011;48396;48.426;1.500;2022-11-22T15:06:36;12.52;;;2.90;;
62362;SDS011;48396;48.426;1.500;2022-11-22T15:12:46;14.38;;;2.85;;
62362;SDS011;48396;48.426;1.500;2022-11-22T15:18:16;14.98;;;3.13;;
62362;SDS011;48396;48.426;1.500;2022-11-22T15:20:47;12.82;;;2.65;;
62362;SDS011;48396;48.426;1.500;2022-11-22T15:23:17;17.95;;;3.33;;
62362;SDS011;48396;48.426;1.500;2022-11-22T15:25:48;19.98;;;3.47;;
62362;SDS011;48396;48.426;1.500;2022-11-22T15:28:26;19.17;;;4.07;;
62362;SDS011;48396;48.426;1.500;2022-11-22T15:30:52;15.65;;;3.35;;
62362;SDS011;48396;48.426;1.500;2022-11-22T15:38:43;15.85;;;3.10;;
62362;SDS011;48396;48.426;1.500;2022-11-22T15:41:13;17.35;;;3.50;;
62362;SDS011;48396;48.426;1.500;2022-11-22T15:43:47;17.92;;;3.00;;
62362;SDS011;48396;48.426;1.500;2022-11-22T15:46:15;13.75;;;2.70;;
62362;SDS011;48396;48.426;1.500;2022-11-22T15:48:45;16.20;;;3.40;;
62362;SDS011;48396;48.426;1.500;2022-11-22T15:56:39;13.73;;;3.00;;
62362;SDS011;48396;48.426;1.500;2022-11-22T15:59:08;14.18;;;3.30;;
62362;SDS011;48396;48.426;1.500;2022-11-22T16:01:41;16.58;;;3.25;;
62362;SDS011;48396;48.426;1.500;2022-11-22T16:04:13;14.95;;;3.17;;
62362;SDS011;48396;48.426;1.500;2022-11-22T16:07:02;14.75;;;3.10;;
62362;SDS011;48396;48.426;1.500;2022-11-22T16:09:34;17.98;;;3.63;;
62362;SDS011;48396;48.426;1.500;2022-11-22T16:12:05;11.23;;;3.20;;
62362;SDS011;48396;48.426;1.500;2022-11-22T16:14:54;11.65;;;2.65;;
62362;SDS011;48396;48.426;1.500;2022-11-22T16:17:21;19.15;;;3.30;;
62362;SDS011;48396;48.426;1.500;2022-11-22T16:22:42;13.63;;;3.15;;
62362;SDS011;48396;48.426;1.500;2022-11-22T16:27:55;17.08;;;3.45;;
62362;SDS011;48396;48.426;1.500;2022-11-22T16:30:21;19.95;;;3.78;;
62362;SDS011;48396;48.426;1.500;2022-11-22T16:32:47;19.55;;;3.72;;
62362;SDS011;48396;48.426;1.500;2022-11-22T16:35:14;15.88;;;3.70;;
62362;SDS011;48396;48.426;1.500;2022-11-22T16:37:41;16.80;;;3.42;;
62362;SDS011;48396;48.426;1.500;2022-11-22T16:40:11;17.90;;;3.30;;
62362;SDS011;48396;48.426;1.500;2022-11-22T16:45:14;17.92;;;3.58;;
62362;SDS011;48396;48.426;1.500;2022-11-22T16:47:42;19.05;;;3.83;;
62362;SDS011;48396;48.426;1.500;2022-11-22T16:50:12;13.60;;;3.28;;
62362;SDS011;48396;48.426;1.500;2022-11-22T16:52:39;13.20;;;3.13;;
62362;SDS011;48396;48.426;1.500;2022-11-22T16:55:16;14.70;;;3.75;;
62362;SDS011;48396;48.426;1.500;2022-11-22T16:57:43;12.88;;;3.20;;
62362;SDS011;48396;48.426;1.500;2022-11-22T17:00:11;19.25;;;3.63;;
62362;SDS011;48396;48.426;1.500;2022-11-22T17:02:37;14.68;;;3.47;;
62362;SDS011;48396;48.426;1.500;2022-11-22T17:05:05;15.52;;;3.28;;
62362;SDS011;48396;48.426;1.500;2022-11-22T17:07:31;21.10;;;3.88;;
62362;SDS011;48396;48.426;1.500;2022-11-22T17:09:58;15.32;;;3.40;;
62362;SDS011;48396;48.426;1.500;2022-11-22T17:12:25;16.75;;;3.08;;
62362;SDS011;48396;48.426;1.500;2022-11-22T17:14:52;17.25;;;3.72;;
62362;SDS011;48396;48.426;1.500;2022-11-22T17:17:18;19.63;;;3.40;;
62362;SDS011;48396;48.426;1.500;2022-11-22T17:19:45;17.70;;;3.50;;
62362;SDS011;48396;48.426;1.500;2022-11-22T17:22:11;17.58;;;4.00;;
62362;SDS011;48396;48.426;1.500;2022-11-22T17:24:38;17.35;;;4.05;;
62362;SDS011;48396;48.426;1.500;2022-11-22T17:27:04;14.60;;;3.70;;
62362;SDS011;48396;48.426;1.500;2022-11-22T17:29:30;21.10;;;3.78;;
62362;SDS011;48396;48.426;1.500;2022-11-22T17:31:56;17.40;;;3.80;;